Time;durP1;ratioP1;P1;durP2;ratioP2;P2;SDS_P1;SDS_P2;PMS_P1;PMS_P2;Temp;Humidity;BMP_temperature;BMP_pressure;BME280_temperature;BME280_humidity;BME280_pressure;Samples;Min_cycle;Max_cycle;Signal;HPM_P1;HPM_P2
2022/03/18 00:00:24;;;;;;;4.47;0.57;;;3.70;99.90;;;;;;5090126;27;20611;-77
2022/03/18 00:02:53;;;;;;;4.87;0.70;;;3.70;99.90;;;;;;5092937;28;20032;-74
2022/03/18 00:05:20;;;;;;;4.77;0.60;;;3.70;99.90;;;;;;5064523;28;20047;-74
2022/03/18 00:07:47;;;;;;;6.80;0.73;;;3.70;99.90;;;;;;5062591;28;20015;-74
2022/03/18 00:10:15;;;;;;;5.77;0.70;;;3.70;99.90;;;;;;5092091;28;20027;-76
2022/03/18 00:12:42;;;;;;;2.90;0.60;;;3.70;99.90;;;;;;5052718;28;20092;-76
2022/03/18 00:15:11;;;;;;;3.70;0.80;;;3.60;99.90;;;;;;5062808;28;20027;-76
2022/03/18 00:17:38;;;;;;;2.77;0.60;;;3.60;99.90;;;;;;5076124;28;20031;-76
2022/03/18 00:20:06;;;;;;;3.10;0.57;;;3.60;99.90;;;;;;5073994;28;20012;-76
2022/03/18 00:22:33;;;;;;;5.43;0.70;;;3.60;99.90;;;;;;5075613;28;20028;-74
2022/03/18 00:25:00;;;;;;;4.70;0.83;;;3.50;99.90;;;;;;5074033;28;20372;-76
2022/03/18 00:27:26;;;;;;;6.13;0.70;;;3.50;99.90;;;;;;5076333;28;20024;-76
2022/03/18 00:29:54;;;;;;;3.97;0.80;;;3.50;99.90;;;;;;5074671;28;20359;-76
2022/03/18 00:32:22;;;;;;;4.53;0.80;;;3.40;99.90;;;;;;5075085;28;20016;-76
2022/03/18 00:34:49;;;;;;;5.57;1.17;;;3.50;99.90;;;;;;5074858;28;20043;-76
2022/03/18 00:37:16;;;;;;;3.00;0.90;;;3.60;99.90;;;;;;5074146;28;20016;-76
2022/03/18 00:39:43;;;;;;;3.23;0.83;;;3.50;99.90;;;;;;5074064;28;20032;-76
2022/03/18 00:42:11;;;;;;;3.83;0.87;;;3.50;99.90;;;;;;5076807;28;20027;-76
2022/03/18 00:44:37;;;;;;;4.50;0.90;;;3.50;99.90;;;;;;5079811;28;20020;-77
2022/03/18 00:51:58;;;;;;;5.37;1.13;;;3.50;99.90;;;;;;5077973;28;20017;-77
2022/03/18 00:52:37;;;;;;;4.63;0.70;;;3.50;99.90;;;;;;5047157;28;20041;-76
2022/03/18 00:55:05;;;;;;;3.33;0.60;;;3.60;99.90;;;;;;5064798;28;20029;-76
2022/03/18 00:57:31;;;;;;;5.13;0.97;;;3.60;99.90;;;;;;5080914;28;20043;-77
2022/03/18 00:59:57;;;;;;;4.80;0.60;;;3.70;99.90;;;;;;5080529;28;20024;-76
2022/03/18 01:02:24;;;;;;;3.90;0.73;;;3.70;99.90;;;;;;5085378;28;20028;-76
2022/03/18 01:04:50;;;;;;;5.63;0.70;;;3.70;99.90;;;;;;5084585;28;20486;-77
2022/03/18 01:07:17;;;;;;;3.73;0.50;;;3.70;99.90;;;;;;5085928;28;20024;-77
2022/03/18 01:09:44;;;;;;;3.87;0.63;;;3.70;99.90;;;;;;5067468;28;20024;-76
2022/03/18 01:12:10;;;;;;;2.83;0.30;;;3.70;99.90;;;;;;5100062;27;20360;-77
2022/03/18 01:14:37;;;;;;;4.83;0.60;;;3.70;99.90;;;;;;5086002;28;20047;-76
2022/03/18 01:17:04;;;;;;;4.33;0.50;;;3.70;99.90;;;;;;5083891;28;20032;-79
2022/03/18 01:19:30;;;;;;;5.70;0.50;;;3.70;99.90;;;;;;5085955;27;20394;-78
2022/03/18 01:21:57;;;;;;;7.43;0.73;;;3.80;99.90;;;;;;5069758;28;20039;-79
2022/03/18 01:24:24;;;;;;;5.63;0.50;;;3.80;99.90;;;;;;5083183;28;20024;-79
2022/03/18 01:26:50;;;;;;;3.50;0.50;;;3.70;99.90;;;;;;5082821;28;20032;-78
2022/03/18 01:29:17;;;;;;;3.93;0.60;;;3.70;99.90;;;;;;5082816;28;20039;-79
2022/03/18 01:31:43;;;;;;;5.27;1.03;;;3.70;99.90;;;;;;5101607;27;20099;-78
2022/03/18 01:34:09;;;;;;;7.63;0.73;;;3.70;99.90;;;;;;5103371;27;20027;-77
2022/03/18 01:36:36;;;;;;;3.07;0.40;;;3.70;99.90;;;;;;5083470;28;20471;-78
2022/03/18 01:39:03;;;;;;;7.17;0.50;;;3.70;99.90;;;;;;5083487;28;20034;-77
2022/03/18 01:41:29;;;;;;;1.73;0.40;;;3.70;99.90;;;;;;5098656;27;20355;-78
2022/03/18 01:43:56;;;;;;;3.33;0.30;;;3.70;99.90;;;;;;5085283;28;20028;-77
2022/03/18 01:46:22;;;;;;;4.37;0.40;;;3.70;99.90;;;;;;5101159;27;20495;-77
2022/03/18 01:48:49;;;;;;;7.10;0.40;;;3.60;99.90;;;;;;5103140;27;20031;-77
2022/03/18 01:51:16;;;;;;;3.13;0.77;;;3.60;99.90;;;;;;5071166;28;20471;-77
2022/03/18 01:53:44;;;;;;;6.47;0.60;;;3.60;99.90;;;;;;5097977;27;20020;-78
2022/03/18 01:56:11;;;;;;;3.40;0.50;;;3.50;99.90;;;;;;5082464;28;20039;-77
2022/03/18 01:58:37;;;;;;;3.63;0.60;;;3.50;99.90;;;;;;5101714;27;20047;-77
2022/03/18 02:01:08;;;;;;;4.47;0.40;;;3.40;99.90;;;;;;5098612;27;20027;-77
2022/03/18 02:03:36;;;;;;;6.33;0.60;;;3.40;99.90;;;;;;5067431;28;20024;-77
2022/03/18 02:06:02;;;;;;;2.43;0.40;;;3.20;99.90;;;;;;5100982;27;20043;-77
2022/03/18 02:08:29;;;;;;;2.57;0.40;;;3.20;99.90;;;;;;5084530;28;20063;-78
2022/03/18 02:10:58;;;;;;;3.33;0.50;;;3.10;99.90;;;;;;5064601;28;20382;-78
2022/03/18 02:13:24;;;;;;;3.00;0.57;;;3.10;99.90;;;;;;5100760;28;20043;-77
2022/03/18 02:15:50;;;;;;;3.63;0.40;;;3.10;99.90;;;;;;5069770;28;20031;-77
2022/03/18 02:18:17;;;;;;;5.20;1.07;;;3.10;99.90;;;;;;5063133;28;20636;-76
2022/03/18 02:20:43;;;;;;;3.50;0.40;;;3.10;99.90;;;;;;5062626;28;20145;-76
2022/03/18 02:23:10;;;;;;;6.70;0.50;;;3.10;99.90;;;;;;5099921;27;20035;-76
2022/03/18 02:25:36;;;;;;;3.03;0.40;;;3.20;99.90;;;;;;5069142;28;20415;-76
2022/03/18 02:28:04;;;;;;;4.50;0.50;;;3.20;99.90;;;;;;5098583;27;20036;-76
2022/03/18 02:30:33;;;;;;;4.23;0.47;;;3.10;99.90;;;;;;5097254;27;20047;-76
2022/03/18 02:33:01;;;;;;;4.10;0.50;;;3.10;99.90;;;;;;5083575;28;20028;-75
2022/03/18 02:35:29;;;;;;;5.93;0.70;;;3.10;99.90;;;;;;5065043;28;20027;-75
2022/03/18 02:37:56;;;;;;;3.13;0.60;;;3.10;99.90;;;;;;5066191;28;20050;-75
2022/03/18 02:40:25;;;;;;;5.77;0.70;;;3.10;99.90;;;;;;5096740;27;20011;-75
2022/03/18 02:42:52;;;;;;;3.83;0.70;;;3.10;99.90;;;;;;5067483;28;20023;-76
2022/03/18 02:45:18;;;;;;;4.07;0.73;;;3.10;99.90;;;;;;5080752;28;20020;-75
2022/03/18 02:47:45;;;;;;;4.03;0.70;;;3.10;99.90;;;;;;5065662;28;20307;-75
2022/03/18 02:50:12;;;;;;;4.27;0.60;;;3.20;99.90;;;;;;5076202;28;20027;-75
2022/03/18 02:52:38;;;;;;;3.67;0.80;;;3.20;99.90;;;;;;5079726;27;21446;-76
2022/03/18 02:55:05;;;;;;;6.27;0.90;;;3.20;99.90;;;;;;5043505;28;20035;-75
2022/03/18 02:57:32;;;;;;;3.83;0.60;;;3.30;99.90;;;;;;5095104;27;20034;-75
2022/03/18 03:00:01;;;;;;;3.83;0.60;;;3.20;99.90;;;;;;5091709;27;20031;-76
2022/03/18 03:02:28;;;;;;;5.10;0.80;;;3.30;99.90;;;;;;5094707;27;20036;-75
2022/03/18 03:10:25;;;;;;;8.50;0.80;;;3.30;99.90;;;;;;5095587;27;20023;-75
2022/03/18 03:12:51;;;;;;;6.17;0.83;;;3.30;99.90;;;;;;5093703;27;20051;-76
2022/03/18 03:15:18;;;;;;;7.43;0.63;;;3.30;99.90;;;;;;5075670;28;20024;-75
2022/03/18 03:17:44;;;;;;;5.43;0.70;;;3.20;99.90;;;;;;5078245;27;20019;-76
2022/03/18 03:20:11;;;;;;;3.03;0.80;;;3.30;99.90;;;;;;5094049;27;20007;-76
2022/03/18 03:22:38;;;;;;;4.87;0.70;;;3.30;99.90;;;;;;5096942;27;20019;-76
2022/03/18 03:25:05;;;;;;;3.17;0.70;;;3.30;99.90;;;;;;5095763;27;20023;-77
2022/03/18 03:27:32;;;;;;;4.43;0.80;;;3.30;99.90;;;;;;5082078;28;20073;-77
2022/03/18 03:30:06;;;;;;;4.60;0.80;;;3.30;99.90;;;;;;5077354;27;20035;-77
2022/03/18 03:32:33;;;;;;;5.33;0.73;;;3.40;99.90;;;;;;5059630;28;20031;-77
2022/03/18 03:34:59;;;;;;;3.93;0.60;;;3.50;99.90;;;;;;5097658;27;20020;-77
2022/03/18 03:37:26;;;;;;;4.60;0.70;;;3.50;99.90;;;;;;5077635;28;20041;-77
2022/03/18 03:39:53;;;;;;;7.00;0.80;;;3.50;99.90;;;;;;5076579;28;20015;-77
2022/03/18 03:42:20;;;;;;;3.90;0.50;;;3.50;99.90;;;;;;5079992;28;20316;-77
2022/03/18 03:44:47;;;;;;;3.93;0.50;;;3.50;99.90;;;;;;5077541;28;20042;-77
2022/03/18 03:47:14;;;;;;;4.13;0.50;;;3.60;99.90;;;;;;5079586;27;20031;-77
2022/03/18 03:49:41;;;;;;;3.33;0.50;;;3.50;99.90;;;;;;5078341;27;20023;-77
2022/03/18 03:52:08;;;;;;;5.77;0.87;;;3.60;99.90;;;;;;5079384;28;20039;-77
2022/03/18 03:54:37;;;;;;;4.20;0.70;;;3.50;99.90;;;;;;5081428;28;20024;-77
2022/03/18 03:57:07;;;;;;;6.30;0.80;;;3.40;99.90;;;;;;5078183;28;21484;-77
2022/03/18 03:59:34;;;;;;;5.23;0.70;;;3.40;99.90;;;;;;5096821;28;20517;-77
2022/03/18 04:02:03;;;;;;;4.93;0.67;;;3.40;99.90;;;;;;5080355;28;20329;-77
2022/03/18 04:04:29;;;;;;;7.80;0.83;;;3.40;99.90;;;;;;5096483;28;20633;-77
2022/03/18 04:06:56;;;;;;;3.53;0.50;;;3.50;99.90;;;;;;5100080;28;20027;-77
2022/03/18 04:09:22;;;;;;;6.00;0.80;;;3.60;99.90;;;;;;5080770;28;20035;-77
2022/03/18 04:11:48;;;;;;;4.47;0.60;;;3.60;99.90;;;;;;5080584;28;20036;-77
2022/03/18 04:14:15;;;;;;;3.57;0.60;;;3.70;99.90;;;;;;5085620;28;20520;-77
2022/03/18 04:16:44;;;;;;;7.30;0.90;;;3.70;99.90;;;;;;5104049;28;21460;-77
2022/03/18 04:19:11;;;;;;;7.07;1.07;;;3.70;99.90;;;;;;5109433;27;20383;-76
2022/03/18 04:21:38;;;;;;;6.80;1.30;;;3.70;99.90;;;;;;5109702;27;20023;-76
2022/03/18 04:24:05;;;;;;;5.23;1.83;;;3.80;99.90;;;;;;5085743;28;20039;-76
2022/03/18 04:26:31;;;;;;;4.90;1.67;;;3.80;99.90;;;;;;5110028;27;20036;-76
2022/03/18 04:28:57;;;;;;;8.93;1.30;;;3.80;99.90;;;;;;5089391;28;20035;-77
2022/03/18 04:31:24;;;;;;;5.67;1.17;;;3.80;99.90;;;;;;5068608;28;20567;-77
2022/03/18 04:33:50;;;;;;;4.30;0.93;;;3.80;99.90;;;;;;5107878;27;20030;-77
2022/03/18 04:36:17;;;;;;;6.90;1.40;;;3.70;99.90;;;;;;5087739;27;20031;-78
2022/03/18 04:38:43;;;;;;;5.37;1.50;;;3.80;99.90;;;;;;5054561;27;20016;-77
2022/03/18 04:41:09;;;;;;;6.97;1.40;;;3.80;99.90;;;;;;5101085;27;20438;-77
2022/03/18 04:43:36;;;;;;;8.60;1.60;;;3.80;99.90;;;;;;5088483;27;20016;-77
2022/03/18 04:46:02;;;;;;;7.47;1.27;;;3.80;99.90;;;;;;5102380;27;20020;-77
2022/03/18 04:48:29;;;;;;;7.60;1.20;;;3.80;99.90;;;;;;5104885;27;20027;-77
2022/03/18 04:50:55;;;;;;;5.30;1.20;;;3.70;99.90;;;;;;5081156;28;20032;-77
2022/03/18 04:53:21;;;;;;;5.83;1.27;;;3.70;99.90;;;;;;5102614;27;20028;-77
2022/03/18 04:55:48;;;;;;;7.00;1.43;;;3.70;99.90;;;;;;5106351;27;20020;-77
2022/03/18 04:58:14;;;;;;;4.57;1.23;;;3.60;99.90;;;;;;5104775;27;20031;-77
2022/03/18 05:00:41;;;;;;;7.73;1.73;;;3.60;99.90;;;;;;5064878;28;20444;-77
2022/03/18 05:03:10;;;;;;;5.83;1.07;;;3.50;99.90;;;;;;5081875;28;20028;-77
2022/03/18 05:05:37;;;;;;;3.33;1.20;;;3.30;99.90;;;;;;5105851;27;20015;-77
2022/03/18 05:08:04;;;;;;;4.30;0.83;;;3.20;99.90;;;;;;5085240;28;20024;-79
2022/03/18 05:10:31;;;;;;;6.87;1.00;;;3.20;99.90;;;;;;5082618;27;20032;-77
2022/03/18 05:12:57;;;;;;;4.63;1.10;;;3.10;99.90;;;;;;5104630;27;20044;-77
2022/03/18 05:15:24;;;;;;;5.93;1.07;;;3.00;99.90;;;;;;5106691;27;20028;-77
2022/03/18 05:17:54;;;;;;;4.50;1.20;;;3.00;99.90;;;;;;5105991;27;20024;-77
2022/03/18 05:20:21;;;;;;;5.60;1.10;;;2.90;99.90;;;;;;5082162;27;20008;-75
2022/03/18 05:22:47;;;;;;;4.10;0.80;;;2.90;99.90;;;;;;5101104;27;20036;-74
2022/03/18 05:25:14;;;;;;;6.63;1.20;;;2.80;99.90;;;;;;5085839;28;20024;-75
2022/03/18 05:27:42;;;;;;;4.93;1.40;;;2.80;99.90;;;;;;5105049;27;20047;-75
2022/03/18 05:30:14;;;;;;;6.87;1.70;;;2.70;99.90;;;;;;5079984;28;20020;-75
2022/03/18 05:32:41;;;;;;;6.28;1.17;;;2.70;99.90;;;;;;5085562;28;20031;-75
2022/03/18 05:35:10;;;;;;;7.07;1.20;;;2.70;99.90;;;;;;5087260;27;20031;-74
2022/03/18 05:37:37;;;;;;;3.27;1.40;;;2.70;99.90;;;;;;5102912;27;20493;-74
2022/03/18 05:40:04;;;;;;;3.30;1.03;;;2.70;99.90;;;;;;5083254;27;20072;-74
2022/03/18 05:42:31;;;;;;;4.73;1.80;;;2.70;99.90;;;;;;5102594;27;20656;-74
2022/03/18 05:44:57;;;;;;;6.77;2.67;;;2.70;99.90;;;;;;5086475;27;20019;-75
2022/03/18 05:47:24;;;;;;;8.63;2.43;;;2.70;99.90;;;;;;5104170;27;20007;-74
2022/03/18 05:49:50;;;;;;;7.33;2.10;;;2.60;99.90;;;;;;5082161;27;20027;-75
2022/03/18 05:52:17;;;;;;;7.40;2.17;;;2.70;99.90;;;;;;5083780;27;21127;-74
2022/03/18 05:54:43;;;;;;;4.20;2.10;;;2.60;99.90;;;;;;5102116;27;20042;-74
2022/03/18 05:57:11;;;;;;;7.03;2.20;;;2.60;99.90;;;;;;5065857;27;20034;-75
2022/03/18 05:59:37;;;;;;;8.63;2.63;;;2.60;99.90;;;;;;5099204;27;20024;-75
2022/03/18 06:02:04;;;;;;;9.03;3.13;;;2.60;99.90;;;;;;5083163;28;20016;-75
2022/03/18 06:04:31;;;;;;;12.07;2.80;;;2.60;99.90;;;;;;5098836;27;20031;-74
2022/03/18 06:06:58;;;;;;;8.17;2.80;;;2.70;99.90;;;;;;5066795;27;20387;-75
2022/03/18 06:12:10;;;;;;;7.03;2.47;;;2.80;99.90;;;;;;5084556;27;20399;-75
2022/03/18 06:14:36;;;;;;;9.73;2.77;;;2.80;99.90;;;;;;5083599;27;20032;-75
2022/03/18 06:17:05;;;;;;;6.87;2.63;;;2.90;99.90;;;;;;5099966;27;20011;-74
2022/03/18 06:19:32;;;;;;;10.97;3.10;;;3.00;99.90;;;;;;5065395;27;20039;-76
2022/03/18 06:21:59;;;;;;;6.70;2.87;;;3.10;99.90;;;;;;5083467;27;20059;-76
2022/03/18 06:24:25;;;;;;;38.70;16.57;;;3.30;99.90;;;;;;5102789;27;20354;-76
2022/03/18 06:26:53;;;;;;;16.87;8.33;;;3.40;99.90;;;;;;5103201;27;20512;-76
2022/03/18 06:29:20;;;;;;;14.77;6.00;;;3.50;99.90;;;;;;5080912;28;20024;-76
2022/03/18 06:31:47;;;;;;;15.93;5.20;;;3.60;99.90;;;;;;5101820;27;20036;-75
2022/03/18 06:34:14;;;;;;;9.80;4.23;;;3.80;99.90;;;;;;5102099;27;20022;-75
2022/03/18 06:36:41;;;;;;;6.63;3.20;;;3.90;99.90;;;;;;5099747;27;20024;-75
2022/03/18 06:39:08;;;;;;;8.47;3.27;;;4.10;99.90;;;;;;5096960;27;20020;-75
2022/03/18 06:41:36;;;;;;;6.00;2.70;;;4.20;99.90;;;;;;5096927;27;20015;-75
2022/03/18 06:44:03;;;;;;;7.20;2.43;;;4.30;99.90;;;;;;5080530;28;20023;-75
2022/03/18 06:46:30;;;;;;;8.50;2.53;;;4.50;99.90;;;;;;5078220;28;20031;-76
2022/03/18 06:48:56;;;;;;;8.63;3.00;;;4.60;99.90;;;;;;5094702;27;20028;-75
2022/03/18 06:51:23;;;;;;;10.13;3.13;;;4.80;99.90;;;;;;5095251;27;20027;-75
2022/03/18 06:53:49;;;;;;;7.47;2.10;;;4.90;99.90;;;;;;5066518;28;20027;-74
2022/03/18 06:56:16;;;;;;;8.97;3.00;;;5.00;99.90;;;;;;5080316;27;20082;-75
2022/03/18 06:58:43;;;;;;;9.47;3.17;;;5.20;99.90;;;;;;5080039;28;20399;-77
2022/03/18 07:01:11;;;;;;;8.13;2.43;;;5.30;99.90;;;;;;5077188;28;20016;-75
2022/03/18 07:03:37;;;;;;;7.47;2.47;;;5.50;99.90;;;;;;5080806;28;20621;-75
2022/03/18 07:06:06;;;;;;;9.40;2.80;;;5.60;99.90;;;;;;5097879;27;20022;-75
2022/03/18 07:08:35;;;;;;;9.32;2.97;;;5.70;99.90;;;;;;5098736;27;20030;-75
2022/03/18 07:11:03;;;;;;;9.60;3.63;;;5.90;99.90;;;;;;5076038;27;20032;-75
2022/03/18 07:13:30;;;;;;;10.43;2.93;;;6.00;99.90;;;;;;5061904;28;20387;-75
2022/03/18 07:17:54;;;;;;;10.35;3.65;;;6.10;99.90;;;;;;5067091;28;20024;-75
2022/03/18 07:18:43;;;;;;;12.63;3.67;;;6.30;99.90;;;;;;5097686;27;20016;-75
2022/03/18 07:21:09;;;;;;;8.95;2.58;;;6.40;99.90;;;;;;5076797;27;20024;-76
2022/03/18 07:23:36;;;;;;;6.68;2.13;;;6.50;99.90;;;;;;5079300;28;21009;-76
2022/03/18 07:26:02;;;;;;;9.02;2.67;;;6.60;99.90;;;;;;5097061;28;20034;-76
2022/03/18 07:28:29;;;;;;;13.02;2.72;;;6.70;99.90;;;;;;5097199;27;20039;-76
2022/03/18 07:30:55;;;;;;;10.00;2.85;;;6.90;99.90;;;;;;5077382;27;20023;-75
2022/03/18 07:33:22;;;;;;;10.13;2.40;;;7.10;99.90;;;;;;5081362;28;20036;-76
2022/03/18 07:35:49;;;;;;;6.97;2.70;;;7.20;99.90;;;;;;5060718;28;20011;-76
2022/03/18 07:38:15;;;;;;;5.72;1.80;;;7.40;99.90;;;;;;5078168;28;20032;-75
2022/03/18 07:40:43;;;;;;;7.75;2.55;;;7.60;99.90;;;;;;5092435;27;20020;-76
2022/03/18 07:43:12;;;;;;;13.02;2.15;;;7.70;99.90;;;;;;5093764;27;20367;-75
2022/03/18 07:45:40;;;;;;;9.13;2.30;;;7.90;99.90;;;;;;5096698;27;20027;-75
2022/03/18 07:48:09;;;;;;;7.57;2.20;;;8.00;99.90;;;;;;5060107;28;20458;-75
2022/03/18 07:50:38;;;;;;;6.25;2.08;;;8.10;99.90;;;;;;5073865;28;20466;-77
2022/03/18 07:53:07;;;;;;;11.30;3.03;;;8.20;99.90;;;;;;5096196;27;20035;-76
2022/03/18 07:55:36;;;;;;;10.07;2.83;;;8.40;99.90;;;;;;5082317;28;20024;-76
2022/03/18 07:58:02;;;;;;;7.40;2.33;;;8.50;99.90;;;;;;5096209;28;20359;-76
2022/03/18 08:00:29;;;;;;;9.75;2.40;;;8.60;99.90;;;;;;5092274;28;20023;-76
2022/03/18 08:02:55;;;;;;;7.28;2.10;;;8.70;99.90;;;;;;5076527;28;20027;-76
2022/03/18 08:05:22;;;;;;;6.10;2.00;;;8.80;99.90;;;;;;5072976;28;20028;-76
2022/03/18 08:07:49;;;;;;;11.15;2.70;;;8.90;99.90;;;;;;5075033;28;20440;-76
2022/03/18 08:10:17;;;;;;;10.60;2.50;;;9.00;99.90;;;;;;5071981;28;20035;-76
2022/03/18 08:12:46;;;;;;;10.73;2.67;;;9.10;99.90;;;;;;5093942;28;20044;-76
2022/03/18 08:15:15;;;;;;;10.20;2.20;;;9.20;99.90;;;;;;5074533;28;20031;-77
2022/03/18 08:17:44;;;;;;;8.50;2.22;;;9.30;99.90;;;;;;5092790;28;20035;-77
2022/03/18 08:20:15;;;;;;;11.82;3.08;;;9.40;99.90;;;;;;5072284;28;20028;-77
2022/03/18 08:22:43;;;;;;;8.63;2.72;;;9.40;99.90;;;;;;5058384;28;20039;-76
2022/03/18 08:25:10;;;;;;;11.27;2.15;;;9.50;99.90;;;;;;5094480;28;20375;-76
2022/03/18 08:27:38;;;;;;;11.43;2.90;;;9.60;99.90;;;;;;5092667;28;20027;-75
2022/03/18 08:30:06;;;;;;;13.93;2.83;;;9.80;99.90;;;;;;5061563;28;20031;-74
2022/03/18 08:32:33;;;;;;;7.95;2.15;;;9.80;99.90;;;;;;5059418;28;20028;-74
2022/03/18 08:35:00;;;;;;;8.20;2.42;;;10.00;99.90;;;;;;5078199;28;21118;-75
2022/03/18 08:40:12;;;;;;;7.80;1.88;;;10.10;99.90;;;;;;5091590;28;20016;-75
2022/03/18 08:42:39;;;;;;;10.15;1.92;;;10.30;99.90;;;;;;5077374;28;20502;-75
2022/03/18 08:45:06;;;;;;;6.75;1.65;;;10.40;99.90;;;;;;5075671;28;20351;-75
2022/03/18 08:47:33;;;;;;;8.07;1.30;;;10.50;99.90;;;;;;5095106;28;20020;-75
2022/03/18 08:50:00;;;;;;;7.90;1.92;;;10.60;99.90;;;;;;5090415;28;22025;-76
2022/03/18 08:52:26;;;;;;;6.97;1.80;;;10.70;99.90;;;;;;5079038;28;20023;-75
2022/03/18 08:54:53;;;;;;;7.88;1.45;;;10.80;99.90;;;;;;5094745;28;20024;-75
2022/03/18 08:57:19;;;;;;;6.35;1.38;;;10.90;99.90;;;;;;5097201;28;20003;-75
2022/03/18 08:59:45;;;;;;;7.47;1.83;;;11.10;99.90;;;;;;5091754;28;20034;-75
2022/03/18 09:02:12;;;;;;;6.50;1.98;;;11.20;99.90;;;;;;5076972;27;20027;-75
2022/03/18 09:04:38;;;;;;;7.18;1.80;;;11.40;99.90;;;;;;5082533;27;20027;-76
2022/03/18 09:07:05;;;;;;;6.63;1.60;;;11.40;99.90;;;;;;5066805;27;20020;-76
2022/03/18 09:09:31;;;;;;;7.57;1.25;;;11.50;99.80;;;;;;5077301;27;20043;-76
2022/03/18 09:11:57;;;;;;;5.80;1.58;;;11.60;99.70;;;;;;5098707;27;20027;-76
2022/03/18 09:14:24;;;;;;;4.78;0.98;;;11.70;99.30;;;;;;5078154;28;20541;-76
2022/03/18 09:16:50;;;;;;;6.70;1.67;;;11.90;99.00;;;;;;5069353;28;20955;-76
2022/03/18 09:19:17;;;;;;;6.57;1.42;;;11.90;98.40;;;;;;5080031;27;20487;-76
2022/03/18 09:21:43;;;;;;;6.38;2.08;;;12.10;97.80;;;;;;5096117;27;20027;-75
2022/03/18 09:24:09;;;;;;;8.38;1.60;;;12.20;96.60;;;;;;5084948;28;20036;-76
2022/03/18 09:26:37;;;;;;;6.95;1.35;;;12.20;96.00;;;;;;5083411;27;20379;-76
2022/03/18 09:29:03;;;;;;;10.65;1.98;;;12.30;95.90;;;;;;5080432;28;20027;-76
2022/03/18 09:31:30;;;;;;;7.50;1.67;;;12.30;95.50;;;;;;5077435;27;20378;-76
2022/03/18 09:33:57;;;;;;;5.38;1.58;;;12.40;95.40;;;;;;5095340;27;20074;-76
2022/03/18 09:36:23;;;;;;;7.80;1.70;;;12.60;95.60;;;;;;5097840;27;20042;-76
2022/03/18 09:38:50;;;;;;;7.07;1.73;;;12.70;94.70;;;;;;5078735;27;20034;-76
2022/03/18 09:41:17;;;;;;;7.40;1.83;;;12.80;94.50;;;;;;5076328;28;20020;-76
2022/03/18 09:43:44;;;;;;;5.55;1.45;;;12.80;94.60;;;;;;5064923;27;20024;-75
2022/03/18 09:46:13;;;;;;;6.82;1.42;;;13.00;94.90;;;;;;5080170;27;20378;-75
2022/03/18 09:48:40;;;;;;;3.78;1.77;;;13.10;94.20;;;;;;5099179;27;20023;-76
2022/03/18 09:51:08;;;;;;;10.05;3.17;;;13.10;94.10;;;;;;5059115;27;20102;-76
2022/03/18 09:53:35;;;;;;;8.05;2.22;;;13.20;94.20;;;;;;5100658;27;20387;-76
2022/03/18 09:56:03;;;;;;;5.82;1.73;;;13.40;93.30;;;;;;5097125;27;20086;-77
2022/03/18 09:58:29;;;;;;;9.00;1.75;;;13.50;92.80;;;;;;5101241;27;20028;-76
2022/03/18 10:00:58;;;;;;;6.25;1.77;;;13.60;92.20;;;;;;5077794;28;20031;-76
2022/03/18 10:03:39;;;;;;;8.18;1.20;;;13.80;92.00;;;;;;5095102;27;20023;-76
2022/03/18 10:06:07;;;;;;;5.15;1.50;;;13.90;91.90;;;;;;5095115;27;20034;-76
2022/03/18 10:08:39;;;;;;;8.73;1.40;;;13.90;91.40;;;;;;5081234;27;20027;-76
2022/03/18 10:11:15;;;;;;;5.03;1.23;;;14.00;91.50;;;;;;5077531;28;20016;-76
2022/03/18 10:13:57;;;;;;;8.40;1.35;;;14.10;90.90;;;;;;5099538;27;20035;-76
2022/03/18 10:16:33;;;;;;;7.85;1.70;;;14.30;90.90;;;;;;5098566;27;20028;-76
2022/03/18 10:19:06;;;;;;;8.07;1.60;;;14.50;90.80;;;;;;5095369;27;20102;-77
2022/03/18 10:21:48;;;;;;;6.57;1.20;;;14.60;90.30;;;;;;5074132;27;20030;-78
2022/03/18 10:24:14;;;;;;;9.30;2.78;;;14.70;90.00;;;;;;5080649;27;20023;-77
2022/03/18 10:26:41;;;;;;;7.20;1.55;;;14.90;88.20;;;;;;5065278;27;20024;-77
2022/03/18 10:29:11;;;;;;;8.13;1.45;;;15.10;87.70;;;;;;5079179;27;20023;-78
2022/03/18 10:31:45;;;;;;;7.35;1.67;;;15.30;88.10;;;;;;5065327;27;20024;-77
2022/03/18 10:37:04;;;;;;;6.15;1.08;;;15.80;85.30;;;;;;5076696;28;20502;-77
2022/03/18 10:39:38;;;;;;;6.78;1.50;;;16.10;86.30;;;;;;5096746;27;20032;-77
2022/03/18 10:42:10;;;;;;;6.88;1.58;;;16.50;86.30;;;;;;5097290;27;20027;-77
2022/03/18 10:44:51;;;;;;;6.97;1.83;;;16.80;83.90;;;;;;5071134;27;20445;-77
2022/03/18 10:47:41;;;;;;;7.75;1.65;;;17.20;82.40;;;;;;5098257;27;20024;-77
2022/03/18 10:50:11;;;;;;;6.25;1.27;;;17.60;79.30;;;;;;5075754;28;20487;-78
2022/03/18 10:52:38;;;;;;;6.43;1.38;;;17.70;78.00;;;;;;5077967;27;20021;-78
2022/03/18 10:55:19;;;;;;;5.78;1.33;;;17.80;77.20;;;;;;5093537;27;20032;-78
2022/03/18 10:57:59;;;;;;;9.55;2.33;;;18.00;76.40;;;;;;5077559;28;20483;-76
2022/03/18 11:00:29;;;;;;;7.75;1.50;;;18.20;72.70;;;;;;5063668;27;20012;-78
2022/03/18 11:03:00;;;;;;;6.35;1.73;;;18.20;74.10;;;;;;5064518;27;20375;-78
2022/03/18 11:05:33;;;;;;;6.28;2.08;;;18.50;72.70;;;;;;5083093;28;20039;-78
2022/03/18 11:08:09;;;;;;;;;;;18.60;72.40;;;;;;5074819;27;20031;-78
2022/03/18 11:13:28;;;;;;;7.35;1.75;;;18.80;69.90;;;;;;5062216;27;20043;-78
2022/03/18 11:15:55;;;;;;;8.13;1.70;;;18.90;69.60;;;;;;5075470;28;20036;-78
2022/03/18 11:18:22;;;;;;;5.15;1.33;;;19.00;69.20;;;;;;5076606;27;20019;-78
2022/03/18 11:20:51;;;;;;;8.45;2.17;;;19.10;68.90;;;;;;5095001;27;20583;-78
2022/03/18 11:23:24;;;;;;;6.78;1.77;;;19.30;68.70;;;;;;5082351;28;20032;-78
2022/03/18 11:25:57;;;;;;;9.70;4.03;;;19.60;66.70;;;;;;5093748;27;20023;-78
2022/03/18 11:28:24;;;;;;;18.58;10.55;;;19.80;66.80;;;;;;5074329;28;20024;-78
2022/03/18 11:31:05;;;;;;;15.35;9.55;;;19.90;65.10;;;;;;5074515;28;20028;-77
2022/03/18 11:33:33;;;;;;;5.45;2.25;;;19.90;64.50;;;;;;5096573;27;20031;-77
2022/03/18 11:36:14;;;;;;;5.35;1.88;;;20.10;63.20;;;;;;5085638;27;20028;-76
2022/03/18 11:38:59;;;;;;;7.97;2.65;;;20.10;63.60;;;;;;5079196;28;20019;-76
2022/03/18 11:41:43;;;;;;;8.70;2.58;;;20.20;63.60;;;;;;5076657;28;20027;-76
2022/03/18 11:44:10;;;;;;;6.88;2.00;;;20.40;62.40;;;;;;5079499;28;20020;-75
2022/03/18 11:46:36;;;;;;;6.70;2.08;;;20.60;62.40;;;;;;5077976;28;20038;-75
2022/03/18 11:49:05;;;;;;;6.88;2.08;;;20.70;61.60;;;;;;5066393;27;21557;-75
2022/03/18 11:51:33;;;;;;;8.52;2.45;;;20.70;60.90;;;;;;5059440;28;20040;-74
2022/03/18 11:54:01;;;;;;;5.60;1.83;;;20.70;60.50;;;;;;5079974;28;20024;-76
2022/03/18 11:56:49;;;;;;;8.32;4.40;;;20.80;60.50;;;;;;5061251;28;20301;-75
2022/03/18 11:59:25;;;;;;;10.38;3.78;;;20.90;60.00;;;;;;5062277;28;20015;-75
2022/03/18 12:01:55;;;;;;;9.48;3.40;;;21.10;59.50;;;;;;5096781;27;20015;-76
2022/03/18 12:04:41;;;;;;;6.15;1.60;;;21.40;59.50;;;;;;5077859;27;20031;-76
2022/03/18 12:07:08;;;;;;;5.60;1.42;;;21.60;58.60;;;;;;5082793;28;20020;-77
2022/03/18 12:10:04;;;;;;;5.15;1.73;;;21.90;58.70;;;;;;5093633;28;20026;-77
2022/03/18 12:12:40;;;;;;;4.82;1.30;;;22.20;56.90;;;;;;5048393;28;20046;-78
2022/03/18 12:15:16;;;;;;;5.65;1.70;;;22.30;57.20;;;;;;5078520;28;20031;-77
2022/03/18 12:17:45;;;;;;;5.10;1.73;;;22.60;56.80;;;;;;5090945;28;20016;-77
2022/03/18 12:20:30;;;;;;;10.95;4.72;;;22.90;55.20;;;;;;5076352;28;20024;-76
2022/03/18 12:23:00;;;;;;;6.65;1.55;;;23.10;54.70;;;;;;5096594;28;20111;-76
2022/03/18 12:25:26;;;;;;;7.30;1.42;;;23.20;53.80;;;;;;5059724;28;20046;-76
2022/03/18 12:27:54;;;;;;;5.10;1.40;;;23.30;52.20;;;;;;5096612;28;20024;-76
2022/03/18 12:30:23;;;;;;;7.72;1.75;;;23.10;53.30;;;;;;5091455;28;20027;-76
2022/03/18 12:32:56;;;;;;;7.18;1.45;;;23.40;53.50;;;;;;5059647;28;20431;-75
2022/03/18 12:35:31;;;;;;;8.40;1.50;;;23.60;52.20;;;;;;5096586;28;20038;-76
2022/03/18 12:38:16;;;;;;;6.97;2.05;;;23.70;51.30;;;;;;5096765;27;20042;-76
2022/03/18 12:40:53;;;;;;;4.88;1.40;;;23.80;50.70;;;;;;5095984;27;20016;-76
2022/03/18 12:43:21;;;;;;;7.70;1.75;;;23.70;50.50;;;;;;5079954;28;20358;-75
2022/03/18 12:45:48;;;;;;;4.88;1.20;;;23.60;51.10;;;;;;5100961;27;20406;-76
2022/03/18 12:48:16;;;;;;;6.32;1.75;;;23.70;50.70;;;;;;5082100;28;20043;-76
2022/03/18 12:50:51;;;;;;;4.30;1.10;;;23.80;51.00;;;;;;5096941;27;20425;-76
2022/03/18 12:53:20;;;;;;;5.50;1.55;;;24.30;50.00;;;;;;5066667;27;20044;-76
2022/03/18 12:55:50;;;;;;;6.28;1.98;;;24.40;49.10;;;;;;5100904;27;20487;-75
2022/03/18 12:58:39;;;;;;;5.30;1.63;;;23.90;48.70;;;;;;5066343;28;20494;-76
2022/03/18 13:01:06;;;;;;;7.15;1.67;;;23.30;50.00;;;;;;5098242;27;20023;-80
2022/03/18 13:03:34;;;;;;;6.82;1.40;;;23.10;50.10;;;;;;5064578;28;20020;-76
2022/03/18 13:06:06;;;;;;;6.60;1.77;;;23.30;50.60;;;;;;5083471;28;20050;-76
2022/03/18 13:08:34;;;;;;;6.65;1.52;;;23.60;49.90;;;;;;5083639;28;20055;-76
2022/03/18 13:11:05;;;;;;;3.47;1.65;;;24.00;49.40;;;;;;5096393;27;20021;-75
2022/03/18 13:13:32;;;;;;;5.03;1.40;;;24.10;48.40;;;;;;5081978;28;20039;-75
2022/03/18 13:16:02;;;;;;;5.05;1.23;;;24.10;48.60;;;;;;5080039;27;20031;-76
2022/03/18 13:18:35;;;;;;;4.40;1.50;;;24.20;48.70;;;;;;5098406;27;20028;-76